Time;durP1;ratioP1;P1;durP2;ratioP2;P2;SDS_P1;SDS_P2;PMS_P1;PMS_P2;Temp;Humidity;BMP_temperature;BMP_pressure;BME280_temperature;BME280_humidity;BME280_pressure;Samples;Min_cycle;Max_cycle;Signal;HPM_P1;HPM_P2
2021/12/18 00:01:21;;;;;;;20.92;13.02;;;4.60;74.00;;;;;;5036244;28;20219;-80
2021/12/18 00:03:53;;;;;;;18.50;13.25;;;4.60;74.00;;;;;;5037701;28;20267;-80
2021/12/18 00:06:22;;;;;;;21.05;13.77;;;4.60;74.10;;;;;;5024200;28;20205;-79
2021/12/18 00:08:51;;;;;;;19.27;13.10;;;4.50;74.20;;;;;;5015058;28;20222;-80
2021/12/18 00:11:22;;;;;;;22.98;13.80;;;4.50;74.60;;;;;;5013680;28;20319;-80
2021/12/18 00:13:52;;;;;;;20.73;14.52;;;4.50;74.40;;;;;;5011516;28;20228;-80
2021/12/18 00:16:19;;;;;;;20.88;14.13;;;4.50;74.50;;;;;;5003572;28;20440;-80
2021/12/18 00:18:49;;;;;;;25.30;14.52;;;4.40;74.50;;;;;;5004144;28;20204;-80
2021/12/18 00:21:19;;;;;;;23.58;14.18;;;4.40;74.70;;;;;;5017654;28;20285;-81
2021/12/18 00:23:49;;;;;;;23.33;14.85;;;4.40;75.00;;;;;;5025526;28;20215;-81
2021/12/18 00:26:16;;;;;;;23.17;14.85;;;4.40;75.20;;;;;;5023734;28;20271;-81
2021/12/18 00:28:43;;;;;;;19.83;13.23;;;4.40;75.10;;;;;;5028063;28;20239;-79
2021/12/18 00:31:11;;;;;;;22.05;13.52;;;4.40;75.60;;;;;;5028048;28;20227;-80
2021/12/18 00:33:38;;;;;;;21.70;14.73;;;4.40;75.50;;;;;;5024764;28;20215;-80
2021/12/18 00:36:05;;;;;;;20.85;14.95;;;4.40;75.70;;;;;;5023171;28;20200;-81
2021/12/18 00:38:32;;;;;;;23.17;15.35;;;4.30;76.50;;;;;;5023413;28;20230;-80
2021/12/18 00:41:14;;;;;;;25.70;15.60;;;4.30;76.60;;;;;;5015160;28;20232;-80
2021/12/18 00:46:23;;;;;;;24.52;15.52;;;4.20;77.50;;;;;;5004640;28;20208;-82
2021/12/18 00:48:51;;;;;;;23.05;15.40;;;4.20;78.10;;;;;;5004846;28;20247;-81
2021/12/18 00:51:18;;;;;;;25.27;16.58;;;4.10;78.10;;;;;;5013186;28;20395;-81
2021/12/18 00:53:45;;;;;;;26.83;16.77;;;4.10;78.50;;;;;;5024304;28;20211;-80
2021/12/18 00:56:13;;;;;;;24.23;15.75;;;4.10;78.50;;;;;;5020224;28;20213;-80
2021/12/18 00:58:40;;;;;;;24.23;15.63;;;4.00;78.80;;;;;;5017717;28;20655;-79
2021/12/18 01:01:09;;;;;;;24.10;15.18;;;4.00;79.10;;;;;;5019203;28;20215;-79
2021/12/18 01:03:37;;;;;;;24.83;15.30;;;4.00;79.70;;;;;;5019818;28;20267;-80
2021/12/18 01:06:05;;;;;;;27.58;17.08;;;4.00;80.20;;;;;;5023242;28;20212;-81
2021/12/18 01:08:31;;;;;;;25.77;16.30;;;4.00;80.30;;;;;;5021572;28;20318;-80
2021/12/18 01:11:17;;;;;;;25.73;16.17;;;4.00;81.30;;;;;;5001383;28;20220;-79
2021/12/18 01:13:58;;;;;;;24.38;16.48;;;4.00;80.60;;;;;;4999883;28;20215;-79
2021/12/18 01:16:35;;;;;;;27.27;16.80;;;3.90;80.50;;;;;;5027096;28;20238;-80
2021/12/18 01:24:31;;;;;;;27.08;15.60;;;3.90;81.50;;;;;;5032410;28;20253;-79
2021/12/18 01:26:58;;;;;;;29.33;16.85;;;3.90;81.60;;;;;;5013025;28;20673;-79
2021/12/18 01:29:27;;;;;;;26.02;15.00;;;3.80;81.70;;;;;;5004542;28;20366;-80
2021/12/18 01:31:54;;;;;;;24.85;15.30;;;3.80;82.30;;;;;;5048998;22;20235;-78
2021/12/18 01:34:20;;;;;;;27.88;17.58;;;3.80;82.30;;;;;;5014860;28;20211;-79
2021/12/18 01:36:48;;;;;;;26.77;15.65;;;3.80;82.40;;;;;;5015932;28;20250;-79
2021/12/18 01:39:14;;;;;;;23.85;16.10;;;3.80;82.90;;;;;;5033817;28;20195;-78
2021/12/18 01:41:58;;;;;;;26.02;17.02;;;3.80;83.10;;;;;;5028691;28;20227;-81
2021/12/18 01:44:53;;;;;;;24.30;15.38;;;3.70;83.60;;;;;;4994834;28;20231;-77
2021/12/18 01:52:54;;;;;;;27.55;17.05;;;3.60;84.40;;;;;;5002822;28;20730;-78
2021/12/18 01:55:22;;;;;;;28.33;16.40;;;3.60;85.30;;;;;;5014498;28;20294;-80
2021/12/18 01:57:48;;;;;;;28.48;16.90;;;3.60;85.90;;;;;;5013455;28;20240;-81
2021/12/18 02:00:19;;;;;;;29.75;17.35;;;3.60;86.10;;;;;;5000134;28;20291;-79
2021/12/18 02:02:46;;;;;;;27.25;16.40;;;3.60;85.90;;;;;;5016025;28;20223;-79
2021/12/18 02:05:13;;;;;;;30.42;16.30;;;3.60;86.10;;;;;;5022648;28;20291;-78
2021/12/18 02:07:41;;;;;;;26.90;17.25;;;3.60;86.30;;;;;;5004166;28;20268;-81
2021/12/18 02:10:16;;;;;;;28.15;17.05;;;3.60;86.40;;;;;;5011878;28;20228;-81
2021/12/18 02:12:49;;;;;;;28.80;18.25;;;3.70;86.00;;;;;;5010404;28;20606;-79
2021/12/18 02:20:50;;;;;;;28.00;16.45;;;3.80;84.50;;;;;;4999034;28;20208;-79
2021/12/18 02:23:18;;;;;;;24.02;14.70;;;3.90;84.60;;;;;;5000257;28;20287;-78
2021/12/18 02:25:46;;;;;;;28.60;17.15;;;3.90;83.90;;;;;;5000218;28;20204;-80
2021/12/18 02:28:17;;;;;;;26.33;16.48;;;3.90;83.60;;;;;;4999441;28;20220;-79
2021/12/18 02:30:45;;;;;;;26.88;17.05;;;3.90;83.00;;;;;;4999693;28;20228;-78
2021/12/18 02:33:12;;;;;;;26.40;15.95;;;3.90;82.50;;;;;;4999717;28;20247;-79
2021/12/18 02:35:45;;;;;;;28.25;16.70;;;3.90;82.40;;;;;;4997785;28;20299;-79
2021/12/18 02:38:19;;;;;;;26.75;15.98;;;3.90;82.60;;;;;;4997998;28;20346;-78
2021/12/18 02:41:09;;;;;;;23.55;15.77;;;3.90;82.30;;;;;;5016285;28;20251;-77
2021/12/18 02:43:38;;;;;;;24.55;15.32;;;4.00;81.60;;;;;;5034170;28;20203;-83
2021/12/18 02:46:08;;;;;;;25.58;15.27;;;3.90;81.70;;;;;;5039410;28;20226;-84
2021/12/18 02:48:36;;;;;;;24.00;15.97;;;3.90;81.60;;;;;;5027220;28;20203;-78
2021/12/18 02:51:05;;;;;;;28.35;16.65;;;3.90;81.70;;;;;;5005094;28;20269;-80
2021/12/18 02:53:34;;;;;;;24.77;14.38;;;3.90;82.90;;;;;;5008019;28;20208;-80
2021/12/18 02:56:04;;;;;;;27.95;15.48;;;3.80;82.30;;;;;;5012477;28;20201;-81
2021/12/18 02:58:32;;;;;;;29.23;17.90;;;3.90;82.00;;;;;;5027528;28;20295;-81
2021/12/18 03:01:00;;;;;;;29.05;16.95;;;3.90;81.60;;;;;;5021136;28;20227;-79
2021/12/18 03:03:31;;;;;;;28.90;16.65;;;3.80;81.80;;;;;;5003803;28;20570;-78
2021/12/18 03:06:04;;;;;;;27.50;15.60;;;3.90;81.70;;;;;;5001013;28;20271;-80
2021/12/18 03:08:42;;;;;;;28.52;16.27;;;3.90;81.40;;;;;;4999959;28;20212;-79
2021/12/18 03:24:57;;;;;;;28.38;16.42;;;3.80;81.70;;;;;;5010803;28;20244;-81
2021/12/18 03:27:24;;;;;;;27.88;15.63;;;3.90;81.90;;;;;;5032927;28;20216;-80
2021/12/18 03:29:51;;;;;;;29.60;16.35;;;3.80;81.20;;;;;;5033288;28;20228;-82
2021/12/18 03:32:18;;;;;;;26.08;15.80;;;3.80;81.30;;;;;;4998733;28;20323;-78
2021/12/18 03:34:46;;;;;;;27.10;17.02;;;3.70;81.60;;;;;;4997788;28;20219;-80
2021/12/18 03:37:13;;;;;;;24.15;15.43;;;3.80;81.90;;;;;;4997801;28;20200;-78
2021/12/18 03:39:40;;;;;;;26.95;15.50;;;3.60;81.90;;;;;;4998098;28;20212;-78
2021/12/18 03:42:09;;;;;;;26.58;15.77;;;3.60;82.40;;;;;;4997197;28;20571;-77
2021/12/18 03:44:37;;;;;;;35.25;18.63;;;3.70;82.70;;;;;;4997287;28;20236;-78
2021/12/18 03:47:05;;;;;;;29.67;16.80;;;3.60;82.70;;;;;;5012527;28;20562;-81
2021/12/18 03:49:32;;;;;;;31.13;17.40;;;3.60;82.80;;;;;;5016376;28;20228;-78
2021/12/18 03:51:58;;;;;;;25.60;15.57;;;3.60;83.10;;;;;;5019218;28;20250;-80
2021/12/18 03:54:26;;;;;;;28.10;16.90;;;3.60;83.00;;;;;;5008734;28;20243;-78
2021/12/18 03:56:53;;;;;;;25.38;14.50;;;3.60;82.90;;;;;;4996173;28;20242;-77
2021/12/18 03:59:21;;;;;;;28.10;15.52;;;3.60;83.00;;;;;;5005211;28;20282;-78
2021/12/18 04:01:48;;;;;;;23.50;14.90;;;3.60;83.40;;;;;;5015380;28;20314;-79
2021/12/18 04:04:15;;;;;;;24.65;15.05;;;3.60;83.10;;;;;;5014902;28;20274;-80
2021/12/18 04:06:43;;;;;;;28.27;15.75;;;3.60;83.70;;;;;;5015672;28;20295;-79
2021/12/18 04:09:11;;;;;;;27.25;15.70;;;3.60;84.40;;;;;;5014810;28;20215;-79
2021/12/18 04:11:38;;;;;;;28.73;17.30;;;3.60;84.40;;;;;;5015709;28;20255;-78
2021/12/18 04:14:05;;;;;;;27.70;16.95;;;3.60;84.40;;;;;;5015826;28;20212;-78
2021/12/18 04:16:33;;;;;;;29.23;16.48;;;3.70;84.40;;;;;;5015826;28;20234;-80
2021/12/18 04:19:01;;;;;;;29.88;15.15;;;3.70;83.80;;;;;;5015234;28;20211;-80
2021/12/18 04:21:29;;;;;;;24.88;15.77;;;3.70;83.50;;;;;;5017968;28;20237;-77
2021/12/18 04:23:56;;;;;;;25.83;16.70;;;3.70;83.30;;;;;;5025979;28;20752;-79
2021/12/18 04:26:23;;;;;;;30.15;15.63;;;3.70;83.40;;;;;;5026692;28;20263;-78
2021/12/18 04:28:50;;;;;;;28.92;16.52;;;3.80;83.70;;;;;;5018459;28;20239;-81
2021/12/18 04:31:17;;;;;;;24.95;15.13;;;3.80;83.70;;;;;;5023136;28;20238;-78
2021/12/18 04:33:45;;;;;;;25.30;15.50;;;3.80;83.60;;;;;;5016014;28;20775;-78
2021/12/18 04:36:12;;;;;;;25.45;14.80;;;3.70;83.10;;;;;;5016007;28;20728;-78
2021/12/18 04:38:39;;;;;;;23.63;13.75;;;3.70;83.40;;;;;;5016040;28;20239;-78
2021/12/18 04:41:06;;;;;;;27.88;15.43;;;3.80;83.40;;;;;;5015774;28;20306;-79
2021/12/18 04:43:33;;;;;;;25.10;13.90;;;3.70;83.00;;;;;;5015053;28;20294;-78
2021/12/18 04:46:00;;;;;;;25.50;15.05;;;3.70;83.30;;;;;;5014885;28;20251;-81
2021/12/18 04:48:27;;;;;;;26.80;15.75;;;3.70;83.30;;;;;;5015271;28;20227;-81
2021/12/18 04:50:55;;;;;;;26.05;14.23;;;3.80;83.10;;;;;;5018678;28;20753;-79
2021/12/18 04:53:22;;;;;;;25.48;14.20;;;3.80;83.00;;;;;;5016316;28;20293;-77
2021/12/18 04:55:49;;;;;;;21.75;14.02;;;3.80;82.80;;;;;;5027208;28;20224;-80
2021/12/18 04:58:16;;;;;;;24.38;14.60;;;3.80;82.80;;;;;;5032459;28;20215;-79
2021/12/18 05:00:47;;;;;;;25.63;13.73;;;3.70;82.90;;;;;;5020414;28;20303;-79
2021/12/18 05:03:14;;;;;;;28.83;16.00;;;3.80;82.70;;;;;;5015691;28;20343;-78
2021/12/18 05:05:41;;;;;;;25.40;14.20;;;3.70;82.50;;;;;;5016273;28;20208;-80
2021/12/18 05:08:10;;;;;;;28.00;15.10;;;3.70;83.00;;;;;;5014880;28;20219;-78
2021/12/18 05:10:37;;;;;;;22.98;13.38;;;3.70;83.50;;;;;;5014578;28;20228;-78
2021/12/18 05:13:04;;;;;;;24.98;14.70;;;3.70;83.30;;;;;;5015112;28;20228;-79
2021/12/18 05:15:32;;;;;;;31.77;16.08;;;3.70;83.90;;;;;;5015637;28;20239;-77
2021/12/18 05:17:59;;;;;;;26.50;14.88;;;3.70;84.00;;;;;;5015456;28;20204;-77
2021/12/18 05:20:26;;;;;;;31.60;15.18;;;3.70;84.90;;;;;;5015561;28;20228;-77
2021/12/18 05:22:53;;;;;;;26.20;14.80;;;3.70;83.20;;;;;;5016527;28;20715;-77
2021/12/18 05:25:21;;;;;;;27.15;15.00;;;3.70;83.20;;;;;;5015652;28;20238;-77
2021/12/18 05:27:48;;;;;;;23.27;13.85;;;3.70;83.50;;;;;;5016265;28;20204;-78
2021/12/18 05:30:15;;;;;;;29.15;15.60;;;3.70;83.30;;;;;;5020530;28;20286;-78
2021/12/18 05:32:42;;;;;;;26.92;14.50;;;3.70;83.40;;;;;;5020866;28;20323;-80
2021/12/18 05:35:10;;;;;;;26.90;15.43;;;3.70;83.00;;;;;;5018180;28;20215;-77
2021/12/18 05:37:49;;;;;;;25.85;15.27;;;3.70;82.20;;;;;;5019629;28;20261;-76
2021/12/18 05:40:21;;;;;;;26.00;14.07;;;3.60;82.60;;;;;;5024071;28;20224;-81
2021/12/18 05:42:51;;;;;;;26.27;14.52;;;3.70;82.60;;;;;;5018494;28;20254;-80
2021/12/18 05:45:18;;;;;;;26.65;14.40;;;3.60;82.70;;;;;;5017271;28;20287;-78
2021/12/18 05:47:45;;;;;;;23.73;13.93;;;3.60;83.40;;;;;;5018255;28;20231;-78
2021/12/18 05:50:14;;;;;;;24.38;14.05;;;3.60;84.00;;;;;;5014175;28;20592;-78
2021/12/18 05:52:42;;;;;;;25.77;13.05;;;3.60;83.90;;;;;;5022176;28;20235;-78
2021/12/18 05:55:09;;;;;;;21.70;13.18;;;3.60;83.70;;;;;;5014232;28;20247;-79
2021/12/18 05:57:36;;;;;;;22.05;11.88;;;3.50;84.10;;;;;;5014564;28;20200;-79
2021/12/18 06:00:07;;;;;;;28.83;13.90;;;3.50;84.30;;;;;;5014378;28;20234;-78
2021/12/18 06:02:34;;;;;;;23.17;12.50;;;3.60;84.40;;;;;;5014392;28;20270;-78
2021/12/18 06:05:04;;;;;;;23.20;13.23;;;3.60;84.40;;;;;;5016302;28;20246;-78
2021/12/18 06:07:38;;;;;;;23.58;12.90;;;3.60;84.10;;;;;;5019417;28;20212;-78
2021/12/18 06:10:05;;;;;;;24.35;13.88;;;3.60;84.80;;;;;;5028423;28;20225;-84
2021/12/18 06:12:32;;;;;;;24.73;12.93;;;3.50;84.30;;;;;;5035730;28;20226;-84
2021/12/18 06:14:59;;;;;;;24.52;13.57;;;3.60;84.40;;;;;;5035286;28;20202;-85
2021/12/18 06:17:27;;;;;;;25.00;14.27;;;3.50;84.30;;;;;;5032038;28;20223;-79
2021/12/18 06:19:54;;;;;;;21.08;12.93;;;3.60;84.40;;;;;;5024123;28;20212;-79
2021/12/18 06:22:21;;;;;;;26.80;13.00;;;3.60;84.40;;;;;;5022712;28;20227;-81
2021/12/18 06:24:48;;;;;;;24.95;14.40;;;3.60;84.40;;;;;;5023832;28;20199;-80
2021/12/18 06:27:15;;;;;;;24.15;12.70;;;3.60;84.40;;;;;;5027085;28;20211;-79
2021/12/18 06:29:43;;;;;;;22.40;13.75;;;3.60;84.40;;;;;;5019842;28;20226;-78
2021/12/18 06:32:10;;;;;;;27.20;14.73;;;3.60;84.40;;;;;;5020214;28;20231;-79
2021/12/18 06:34:38;;;;;;;24.65;13.75;;;3.70;84.40;;;;;;5021288;28;20547;-79
2021/12/18 06:37:05;;;;;;;24.90;13.88;;;3.60;83.80;;;;;;5021308;28;20363;-80
2021/12/18 06:39:33;;;;;;;23.48;13.32;;;3.60;84.40;;;;;;5025082;28;20295;-81
2021/12/18 06:42:00;;;;;;;24.88;13.63;;;3.60;84.40;;;;;;5021732;28;20224;-82
2021/12/18 06:44:28;;;;;;;24.55;12.60;;;3.60;84.40;;;;;;5024065;28;20258;-79
2021/12/18 06:46:56;;;;;;;26.23;13.48;;;3.60;84.40;;;;;;5018189;28;20216;-79
2021/12/18 06:49:24;;;;;;;25.60;13.32;;;3.60;84.40;;;;;;5019873;28;20275;-78
2021/12/18 06:51:52;;;;;;;26.85;13.85;;;3.60;83.80;;;;;;5023367;28;20235;-77
2021/12/18 06:54:19;;;;;;;24.08;13.00;;;3.60;84.40;;;;;;5018665;28;20711;-77
2021/12/18 06:56:46;;;;;;;23.83;13.38;;;3.60;84.30;;;;;;5025684;28;20204;-75
2021/12/18 06:59:13;;;;;;;22.00;12.63;;;3.70;84.40;;;;;;5034644;28;20307;-80
2021/12/18 07:01:40;;;;;;;19.90;11.73;;;3.70;83.70;;;;;;5034024;28;20283;-77
2021/12/18 07:04:06;;;;;;;22.10;12.45;;;3.70;82.40;;;;;;5031419;28;20212;-79
2021/12/18 07:06:34;;;;;;;25.52;13.70;;;3.60;84.00;;;;;;5018682;28;20263;-79
2021/12/18 07:09:02;;;;;;;22.55;13.10;;;3.60;84.00;;;;;;5017852;28;20294;-79
2021/12/18 07:11:29;;;;;;;31.95;14.02;;;3.60;84.30;;;;;;5017455;28;20331;-78
2021/12/18 07:13:56;;;;;;;22.35;13.70;;;3.60;84.40;;;;;;5017427;28;20220;-79
2021/12/18 07:16:23;;;;;;;24.48;12.43;;;3.50;84.30;;;;;;5022032;28;20212;-79
2021/12/18 07:18:51;;;;;;;23.50;13.52;;;3.60;84.40;;;;;;5021547;28;20211;-79
2021/12/18 07:21:24;;;;;;;20.88;12.73;;;3.50;84.30;;;;;;5026800;28;20199;-79
2021/12/18 07:23:51;;;;;;;27.83;13.30;;;3.50;84.30;;;;;;5017756;28;20223;-81
2021/12/18 07:26:19;;;;;;;21.15;11.48;;;3.40;84.20;;;;;;5021565;28;20222;-79
2021/12/18 07:28:46;;;;;;;25.30;13.38;;;3.40;84.50;;;;;;5022907;28;20302;-79
2021/12/18 07:31:13;;;;;;;25.52;13.55;;;3.40;84.40;;;;;;5033567;28;20514;-78
2021/12/18 07:33:42;;;;;;;22.92;12.70;;;3.40;84.30;;;;;;5069141;22;20254;-80
2021/12/18 07:36:10;;;;;;;23.42;11.80;;;3.40;84.20;;;;;;5039568;28;20233;-78
2021/12/18 07:38:37;;;;;;;24.08;11.98;;;3.40;84.20;;;;;;5041601;28;20217;-79
2021/12/18 07:41:04;;;;;;;19.65;11.38;;;3.40;84.20;;;;;;5039621;28;20231;-78
2021/12/18 07:43:32;;;;;;;23.58;11.65;;;3.40;84.30;;;;;;5022189;28;20243;-78
2021/12/18 07:45:59;;;;;;;23.92;12.80;;;3.40;85.00;;;;;;5017372;28;20196;-79
2021/12/18 07:48:26;;;;;;;22.40;12.38;;;3.40;84.20;;;;;;5003646;28;20215;-78
2021/12/18 07:50:53;;;;;;;18.48;9.98;;;3.40;84.20;;;;;;5030744;28;20238;-78
2021/12/18 07:53:21;;;;;;;20.02;12.18;;;3.40;84.10;;;;;;5026141;28;20227;-77
2021/12/18 07:55:48;;;;;;;22.83;11.40;;;3.40;84.10;;;;;;5010300;28;20756;-77
2021/12/18 07:58:15;;;;;;;18.45;10.13;;;3.40;84.20;;;;;;5019598;28;20275;-79
2021/12/18 08:00:44;;;;;;;19.33;10.65;;;3.40;84.20;;;;;;5033873;28;20216;-78
2021/12/18 08:03:11;;;;;;;20.70;11.10;;;3.40;84.20;;;;;;5031223;28;20224;-81
2021/12/18 08:05:38;;;;;;;20.40;12.00;;;3.50;84.30;;;;;;5027753;28;20228;-78
2021/12/18 08:08:05;;;;;;;20.15;10.45;;;3.50;84.00;;;;;;5012215;28;20236;-82
2021/12/18 08:10:32;;;;;;;18.00;9.27;;;3.50;84.30;;;;;;5022549;28;20553;-79
2021/12/18 08:12:59;;;;;;;19.20;10.45;;;3.50;84.10;;;;;;5012684;28;20239;-79
2021/12/18 08:15:26;;;;;;;22.85;11.05;;;3.60;84.40;;;;;;5023884;28;20207;-77
2021/12/18 08:17:57;;;;;;;21.40;12.05;;;3.60;84.20;;;;;;5027767;28;20212;-77
2021/12/18 08:20:25;;;;;;;23.48;11.50;;;3.60;84.20;;;;;;5032306;28;20192;-77
2021/12/18 08:22:52;;;;;;;17.88;11.02;;;3.70;83.40;;;;;;5032784;28;20204;-76
2021/12/18 08:25:19;;;;;;;19.05;10.85;;;3.80;82.60;;;;;;5035754;28;20203;-77
2021/12/18 08:27:46;;;;;;;18.35;10.45;;;3.80;81.40;;;;;;5031181;28;20208;-81
2021/12/18 08:30:14;;;;;;;21.13;10.50;;;3.70;81.30;;;;;;5032084;28;20246;-79
2021/12/18 08:32:43;;;;;;;20.77;10.20;;;3.80;80.40;;;;;;5027866;28;20315;-80
2021/12/18 08:35:12;;;;;;;19.90;10.60;;;3.80;80.40;;;;;;5029815;28;20211;-77
2021/12/18 08:37:39;;;;;;;19.90;11.75;;;3.90;80.50;;;;;;5036853;28;20226;-78
2021/12/18 08:40:07;;;;;;;16.95;9.02;;;3.80;80.40;;;;;;5037185;28;20218;-78
2021/12/18 08:42:34;;;;;;;17.15;9.65;;;3.80;80.40;;;;;;5031588;28;20239;-77
2021/12/18 08:45:01;;;;;;;18.92;10.23;;;3.70;80.80;;;;;;5011245;28;20208;-81
2021/12/18 08:47:28;;;;;;;21.67;11.30;;;3.70;81.60;;;;;;5003483;28;20216;-81
2021/12/18 08:49:55;;;;;;;20.60;10.90;;;3.80;81.60;;;;;;5020245;28;20207;-80
2021/12/18 08:52:24;;;;;;;17.67;10.20;;;3.80;80.40;;;;;;5020523;28;20247;-81
2021/12/18 08:54:51;;;;;;;20.13;11.30;;;3.70;80.80;;;;;;5019170;28;20211;-80
2021/12/18 08:57:19;;;;;;;21.90;11.05;;;3.70;81.30;;;;;;5011486;28;20271;-80
2021/12/18 08:59:46;;;;;;;22.20;10.98;;;3.70;82.40;;;;;;5011362;28;20242;-81
2021/12/18 09:02:15;;;;;;;19.80;10.15;;;3.70;81.80;;;;;;5026016;28;20310;-79
2021/12/18 09:04:43;;;;;;;19.95;10.60;;;3.70;82.20;;;;;;5010910;28;20208;-79
2021/12/18 09:07:13;;;;;;;20.27;11.23;;;3.80;82.50;;;;;;5011870;28;20519;-82
2021/12/18 09:09:44;;;;;;;20.90;10.90;;;3.80;81.70;;;;;;5020507;28;20215;-81
2021/12/18 09:12:13;;;;;;;21.70;12.18;;;3.80;81.70;;;;;;5029363;28;20224;-81
2021/12/18 09:14:41;;;;;;;22.67;11.25;;;3.80;82.10;;;;;;5015843;28;20200;-78
2021/12/18 09:17:09;;;;;;;24.75;11.75;;;3.80;82.40;;;;;;5016302;28;20216;-79
2021/12/18 09:19:37;;;;;;;20.67;11.85;;;3.80;82.80;;;;;;5016208;28;20315;-79
2021/12/18 09:22:06;;;;;;;22.92;12.48;;;3.80;82.40;;;;;;5021840;28;20231;-79
2021/12/18 09:24:33;;;;;;;17.95;10.75;;;3.80;81.70;;;;;;5031100;28;20250;-80
2021/12/18 09:27:04;;;;;;;20.95;11.55;;;3.90;81.70;;;;;;5027046;28;20298;-79
2021/12/18 09:29:32;;;;;;;20.80;10.95;;;3.90;82.00;;;;;;5032852;28;20211;-81
2021/12/18 09:31:59;;;;;;;21.40;11.30;;;4.00;80.60;;;;;;5031411;28;20259;-79
2021/12/18 09:34:27;;;;;;;19.33;11.57;;;4.00;81.00;;;;;;5027852;28;20263;-80
2021/12/18 09:36:55;;;;;;;28.55;12.18;;;4.10;80.60;;;;;;5035693;28;20243;-79
2021/12/18 09:39:21;;;;;;;22.00;11.38;;;4.00;80.60;;;;;;5036307;28;20271;-81
2021/12/18 09:41:49;;;;;;;21.45;11.73;;;4.10;80.60;;;;;;5036382;28;20223;-80
2021/12/18 09:44:22;;;;;;;21.60;11.35;;;4.10;80.60;;;;;;5036730;28;20210;-81
2021/12/18 09:46:49;;;;;;;23.40;11.75;;;4.10;80.60;;;;;;5036614;28;20204;-80
2021/12/18 09:49:17;;;;;;;20.30;10.93;;;4.10;79.90;;;;;;5032621;28;20203;-79
2021/12/18 09:51:44;;;;;;;20.08;12.60;;;4.20;79.00;;;;;;5026911;28;20219;-79
2021/12/18 09:54:12;;;;;;;21.77;11.90;;;4.20;78.50;;;;;;5025806;28;20227;-81
2021/12/18 09:56:40;;;;;;;21.85;11.68;;;4.20;78.70;;;;;;5027636;28;20207;-80
2021/12/18 09:59:07;;;;;;;21.30;11.63;;;4.20;78.30;;;;;;5027928;28;20203;-79
2021/12/18 10:01:36;;;;;;;22.98;11.13;;;4.20;77.70;;;;;;5025753;28;20215;-80
2021/12/18 10:04:05;;;;;;;19.98;11.70;;;4.20;78.30;;;;;;5025260;28;20215;-80
2021/12/18 10:06:36;;;;;;;24.83;11.30;;;4.30;78.00;;;;;;5019657;28;20207;-80
2021/12/18 10:09:05;;;;;;;26.60;12.10;;;4.40;77.60;;;;;;5007655;28;20294;-78
2021/12/18 10:11:32;;;;;;;18.90;10.57;;;4.50;76.40;;;;;;5013830;28;20227;-78
2021/12/18 10:14:02;;;;;;;18.42;10.60;;;4.40;76.00;;;;;;5021120;28;20223;-79
2021/12/18 10:16:30;;;;;;;20.23;11.45;;;4.50;76.20;;;;;;5019556;28;20203;-79
2021/12/18 10:19:00;;;;;;;20.63;11.13;;;4.40;76.50;;;;;;5024122;28;20210;-80
2021/12/18 10:21:29;;;;;;;20.10;10.90;;;4.50;75.70;;;;;;5024100;28;20200;-79
2021/12/18 10:23:57;;;;;;;19.58;11.93;;;4.50;75.20;;;;;;5023622;28;20212;-78
2021/12/18 10:26:35;;;;;;;20.63;12.38;;;4.40;75.30;;;;;;5027466;28;20683;-79
2021/12/18 10:29:02;;;;;;;19.27;10.35;;;4.30;75.90;;;;;;5020504;28;20267;-78
2021/12/18 10:31:43;;;;;;;24.65;12.85;;;4.30;76.70;;;;;;5026157;28;20218;-79
2021/12/18 10:34:20;;;;;;;20.00;11.57;;;4.40;76.50;;;;;;5031412;28;20231;-80
2021/12/18 10:37:10;;;;;;;23.85;12.60;;;4.50;76.40;;;;;;5027341;28;20224;-81
2021/12/18 10:39:39;;;;;;;24.05;12.55;;;4.50;77.00;;;;;;5026668;28;20212;-79
2021/12/18 10:42:17;;;;;;;21.65;11.60;;;4.50;77.00;;;;;;5033556;28;20226;-80
2021/12/18 10:45:04;;;;;;;21.65;11.40;;;4.50;77.20;;;;;;5035171;28;20208;-80
2021/12/18 10:47:50;;;;;;;21.15;11.65;;;4.50;76.80;;;;;;5028672;28;20286;-78
2021/12/18 10:50:22;;;;;;;24.60;12.50;;;4.50;76.60;;;;;;5029160;28;20306;-79
2021/12/18 10:52:57;;;;;;;22.15;12.00;;;4.60;76.00;;;;;;5025736;28;20239;-80
2021/12/18 10:55:33;;;;;;;21.42;11.15;;;4.70;76.20;;;;;;5025331;28;20244;-79
2021/12/18 10:58:02;;;;;;;19.23;11.48;;;4.70;74.90;;;;;;5025130;28;20605;-79
2021/12/18 11:00:34;;;;;;;17.25;11.00;;;4.60;75.60;;;;;;5025896;28;20208;-79
2021/12/18 11:03:15;;;;;;;19.88;12.07;;;4.50;76.20;;;;;;5026971;28;20251;-80
2021/12/18 11:05:43;;;;;;;18.52;10.98;;;4.50;76.80;;;;;;5029113;28;20261;-80
2021/12/18 11:08:12;;;;;;;20.50;11.85;;;4.50;76.30;;;;;;5027380;28;20215;-79
2021/12/18 11:10:53;;;;;;;19.40;10.65;;;4.60;76.80;;;;;;5026680;28;20211;-79
2021/12/18 11:13:38;;;;;;;21.80;11.48;;;4.60;76.30;;;;;;5026023;28;20251;-79
2021/12/18 11:16:06;;;;;;;19.38;11.35;;;4.60;76.00;;;;;;5025415;28;20235;-80
2021/12/18 11:18:34;;;;;;;20.83;10.43;;;4.80;76.20;;;;;;5031438;28;20603;-81
2021/12/18 11:21:03;;;;;;;18.83;11.40;;;5.00;74.00;;;;;;5038445;28;20208;-79
2021/12/18 11:23:39;;;;;;;18.83;11.85;;;4.70;73.80;;;;;;5039402;28;20218;-79
2021/12/18 11:26:07;;;;;;;19.98;12.35;;;4.60;75.00;;;;;;5030206;28;20204;-77
2021/12/18 11:28:35;;;;;;;22.25;11.57;;;4.60;75.30;;;;;;5018526;28;20196;-77
2021/12/18 11:31:03;;;;;;;22.13;11.82;;;4.50;76.90;;;;;;5031976;28;20184;-77
2021/12/18 11:33:32;;;;;;;20.98;11.70;;;4.50;77.00;;;;;;5028980;28;20246;-76
2021/12/18 11:36:03;;;;;;;26.85;13.27;;;4.50;77.20;;;;;;5031941;28;20196;-78
2021/12/18 11:38:33;;;;;;;23.30;13.10;;;4.60;76.90;;;;;;5029073;28;20184;-77
2021/12/18 11:41:01;;;;;;;19.50;11.82;;;4.80;76.30;;;;;;5029298;28;20203;-77
2021/12/18 11:43:35;;;;;;;20.35;11.70;;;4.70;74.90;;;;;;5032872;28;20224;-77
2021/12/18 11:46:03;;;;;;;19.63;11.13;;;4.80;73.10;;;;;;5036051;28;20223;-77
2021/12/18 11:48:52;;;;;;;21.58;10.70;;;4.60;74.80;;;;;;5031092;28;20211;-78
2021/12/18 11:51:19;;;;;;;19.35;11.73;;;4.80;74.90;;;;;;5030906;28;20276;-77
2021/12/18 11:53:48;;;;;;;21.67;11.90;;;4.70;74.80;;;;;;5030101;28;20208;-78
2021/12/18 11:56:16;;;;;;;21.98;12.18;;;4.70;75.30;;;;;;5030306;28;20216;-77
2021/12/18 11:58:45;;;;;;;20.58;11.15;;;4.80;73.30;;;;;;5036875;28;20223;-78
2021/12/18 12:01:19;;;;;;;22.38;11.80;;;4.90;74.30;;;;;;5034627;28;20243;-78
2021/12/18 12:03:54;;;;;;;21.08;11.23;;;5.00;73.00;;;;;;5028275;28;20231;-78
2021/12/18 12:06:30;;;;;;;19.95;11.25;;;5.00;73.00;;;;;;5029574;28;20227;-78
2021/12/18 12:09:24;;;;;;;20.23;10.57;;;4.90;72.90;;;;;;5020954;28;20210;-78
2021/12/18 12:11:57;;;;;;;20.25;10.15;;;4.70;74.50;;;;;;5027572;28;20274;-79
2021/12/18 12:14:25;;;;;;;22.88;12.07;;;4.60;75.90;;;;;;5028734;28;20291;-80
2021/12/18 12:17:04;;;;;;;20.00;12.32;;;4.70;76.00;;;;;;5030424;28;20211;-79
2021/12/18 12:19:56;;;;;;;18.40;10.25;;;4.70;75.40;;;;;;5032132;28;20196;-80
2021/12/18 12:22:42;;;;;;;18.17;10.82;;;4.70;74.70;;;;;;5032111;28;20243;-79
2021/12/18 12:25:14;;;;;;;18.35;10.38;;;4.70;72.80;;;;;;5019218;28;20231;-79
2021/12/18 12:27:44;;;;;;;17.25;9.88;;;4.60;74.00;;;;;;5014003;28;20208;-78
2021/12/18 12:30:26;;;;;;;16.70;8.75;;;4.70;73.60;;;;;;5014993;28;20192;-79
2021/12/18 12:32:57;;;;;;;17.83;10.32;;;4.80;72.80;;;;;;5011776;28;20254;-79
2021/12/18 12:35:24;;;;;;;18.23;10.52;;;4.90;72.90;;;;;;5024770;28;20195;-81
2021/12/18 12:37:51;;;;;;;16.08;10.10;;;4.70;72.80;;;;;;5030189;28;20262;-79
2021/12/18 12:40:33;;;;;;;17.10;9.73;;;4.80;73.30;;;;;;5033462;28;20207;-81
2021/12/18 12:43:21;;;;;;;14.95;9.20;;;4.80;72.90;;;;;;5033966;28;20267;-78
2021/12/18 12:45:51;;;;;;;20.73;10.10;;;4.70;74.00;;;;;;5021011;28;20200;-80
2021/12/18 12:48:19;;;;;;;18.55;9.10;;;4.70;74.30;;;;;;5030672;28;20285;-79
2021/12/18 12:50:56;;;;;;;18.25;10.05;;;4.60;75.00;;;;;;5017496;28;20200;-79
2021/12/18 12:53:23;;;;;;;16.52;9.52;;;4.80;75.20;;;;;;5034078;28;20219;-78
2021/12/18 12:55:54;;;;;;;15.63;9.32;;;4.80;73.60;;;;;;5030351;28;20205;-79
2021/12/18 12:58:24;;;;;;;16.95;9.10;;;4.80;73.70;;;;;;5023373;28;20207;-79
2021/12/18 13:00:58;;;;;;;17.02;9.70;;;4.80;74.20;;;;;;5016482;28;20200;-79
2021/12/18 13:03:35;;;;;;;14.55;8.93;;;4.90;74.30;;;;;;5028374;28;20238;-81
2021/12/18 13:06:11;;;;;;;18.58;10.52;;;5.00;73.80;;;;;;5027669;28;20239;-79
2021/12/18 13:08:41;;;;;;;18.58;9.52;;;5.00;73.00;;;;;;5016139;28;20212;-79
2021/12/18 13:11:16;;;;;;;17.98;10.05;;;4.80;74.00;;;;;;5033263;28;20238;-79
2021/12/18 13:13:44;;;;;;;17.38;9.95;;;4.80;74.90;;;;;;5031793;28;20235;-78
2021/12/18 13:16:14;;;;;;;16.27;9.45;;;4.80;75.20;;;;;;5033649;28;20212;-81
2021/12/18 13:18:43;;;;;;;14.13;8.68;;;5.00;74.90;;;;;;5020412;28;20243;-78
2021/12/18 13:21:15;;;;;;;16.33;9.02;;;4.90;73.90;;;;;;5018981;28;20691;-79
2021/12/18 13:24:07;;;;;;;13.77;8.50;;;4.80;74.60;;;;;;5018106;28;20636;-78